Time;durP1;ratioP1;P1;durP2;ratioP2;P2;SDS_P1;SDS_P2;PMS_P1;PMS_P2;Temp;Humidity;BMP_temperature;BMP_pressure;BME280_temperature;BME280_humidity;BME280_pressure;Samples;Min_cycle;Max_cycle;Signal;HPM_P1;HPM_P2
2022/03/01 00:00:18;;;;;;;27.87;16.00;;;;;;;-145.18;100.00;46703.38;4949841;28;20047;-61
2022/03/01 00:02:44;;;;;;;28.30;16.13;;;;;;;-145.18;100.00;46717.03;4948211;29;20087;-60
2022/03/01 00:05:10;;;;;;;29.07;15.90;;;;;;;-145.18;100.00;46717.03;4948997;29;20069;-60
2022/03/01 00:07:35;;;;;;;31.57;16.03;;;;;;;-145.18;100.00;46709.22;4948230;28;20043;-60
2022/03/01 00:10:01;;;;;;;29.60;16.67;;;;;;;-145.18;100.00;46689.69;4948763;29;20039;-60
2022/03/01 00:12:26;;;;;;;30.40;16.23;;;;;;;-145.18;100.00;46722.91;4948363;28;20098;-60
2022/03/01 00:14:52;;;;;;;27.07;15.23;;;;;;;-145.18;100.00;46699.47;4949381;29;20039;-60
2022/03/01 00:17:17;;;;;;;33.37;17.60;;;;;;;-145.18;100.00;46691.66;4948253;29;20054;-61
2022/03/01 00:19:43;;;;;;;31.03;16.57;;;;;;;-145.18;100.00;46724.84;4949010;29;20078;-60
2022/03/01 00:22:08;;;;;;;35.10;17.83;;;;;;;-145.18;100.00;46742.44;4948801;29;20094;-61
2022/03/01 00:24:34;;;;;;;35.03;17.97;;;;;;;-145.18;100.00;46771.75;4948741;29;20073;-61
2022/03/01 00:26:59;;;;;;;33.13;17.60;;;;;;;-145.18;100.00;46728.75;4948418;29;20134;-60
2022/03/01 00:29:25;;;;;;;27.83;16.27;;;;;;;-145.18;100.00;46773.69;4948779;29;20035;-61
2022/03/01 00:31:51;;;;;;;27.13;16.07;;;;;;;-145.18;100.00;46765.88;4948597;29;20047;-60
2022/03/01 00:34:16;;;;;;;31.90;16.77;;;;;;;-145.18;100.00;46773.69;4948080;29;20457;-60
2022/03/01 00:36:42;;;;;;;29.47;15.87;;;;;;;-145.18;100.00;46722.91;4948190;29;20043;-61
2022/03/01 00:39:07;;;;;;;29.63;16.80;;;;;;;-145.18;100.00;46728.75;4948723;29;20071;-61
2022/03/01 00:41:33;;;;;;;34.10;17.13;;;;;;;-145.18;100.00;46722.91;4948066;28;20119;-61
2022/03/01 00:43:59;;;;;;;28.70;16.60;;;;;;;-145.18;100.00;46697.50;4949265;29;20050;-61
2022/03/01 00:46:26;;;;;;;34.80;17.73;;;;;;;-145.18;100.00;46662.34;4947628;28;20460;-60
2022/03/01 00:48:53;;;;;;;33.03;17.90;;;;;;;-145.18;100.00;46677.97;4948447;29;20039;-60
2022/03/01 00:51:18;;;;;;;29.65;16.40;;;;;;;-145.18;100.00;46664.31;4947731;29;20538;-61
2022/03/01 00:53:44;;;;;;;27.13;16.07;;;;;;;-145.18;100.00;46666.25;4931164;29;20043;-61
2022/03/01 00:56:09;;;;;;;35.23;17.30;;;;;;;-145.18;100.00;46691.66;4948365;29;20039;-60
2022/03/01 00:58:34;;;;;;;32.13;16.37;;;;;;;-145.18;100.00;46699.47;4947790;29;20126;-60
2022/03/01 01:01:00;;;;;;;31.40;16.57;;;;;;;-145.18;100.00;46728.75;4948787;28;20055;-61
2022/03/01 01:03:25;;;;;;;32.90;15.77;;;;;;;-145.18;100.00;46728.75;4948791;28;20047;-60
2022/03/01 01:05:50;;;;;;;35.70;15.63;;;;;;;-145.18;100.00;46691.66;4952073;29;20100;-61
2022/03/01 01:08:16;;;;;;;28.57;16.33;;;;;;;-145.18;100.00;46740.47;4951641;29;20058;-61
2022/03/01 01:10:41;;;;;;;32.17;15.73;;;;;;;-145.18;100.00;46724.84;4951886;29;20039;-60
2022/03/01 01:13:07;;;;;;;28.83;15.43;;;;;;;-145.18;100.00;46713.13;4951869;28;20504;-61
2022/03/01 01:15:32;;;;;;;31.40;15.33;;;;;;;-145.18;100.00;46732.66;4952110;28;20047;-61
2022/03/01 01:17:58;;;;;;;27.13;15.90;;;;;;;-145.18;100.00;46763.91;4951372;29;20113;-61
2022/03/01 01:20:23;;;;;;;30.00;15.63;;;;;;;-145.18;100.00;46742.44;4951677;29;20051;-60
2022/03/01 01:22:49;;;;;;;31.30;15.93;;;;;;;-145.18;100.00;46758.06;4951672;28;20039;-61
2022/03/01 01:25:20;;;;;;;28.57;16.37;;;;;;;-145.18;100.00;46736.56;4951501;29;20043;-60
2022/03/01 01:27:48;;;;;;;33.10;17.23;;;;;;;-145.18;100.00;46701.41;4951360;29;20385;-60
2022/03/01 01:30:16;;;;;;;32.22;16.08;;;;;;;-145.18;100.00;46715.09;4933803;29;20136;-61
2022/03/01 01:32:42;;;;;;;31.20;16.77;;;;;;;-145.18;100.00;46709.22;4952022;29;20097;-60
2022/03/01 01:35:09;;;;;;;30.42;15.95;;;;;;;-145.18;100.00;46736.56;4952375;29;20051;-60
2022/03/01 01:37:35;;;;;;;28.30;16.73;;;;;;;-145.18;100.00;46713.13;4950597;29;20047;-60
2022/03/01 01:40:00;;;;;;;31.87;16.13;;;;;;;-145.18;100.00;46812.75;4951376;29;20404;-60
2022/03/01 01:42:26;;;;;;;29.80;15.17;;;;;;;-145.18;100.00;46797.13;4950637;29;20066;-60
2022/03/01 01:44:51;;;;;;;29.50;15.47;;;;;;;-145.18;100.00;46750.25;4951377;29;20109;-61
2022/03/01 01:47:17;;;;;;;28.20;15.13;;;;;;;-145.18;100.00;46758.06;4951041;29;20130;-61
2022/03/01 01:49:42;;;;;;;32.63;15.90;;;;;;;-145.18;100.00;46750.25;4951993;29;20571;-60
2022/03/01 01:52:08;;;;;;;30.73;14.90;;;;;;;-145.18;100.00;46793.22;4950684;29;20039;-60
2022/03/01 01:54:34;;;;;;;28.93;15.17;;;;;;;-145.18;100.00;46736.56;4951111;29;20047;-61
2022/03/01 01:56:59;;;;;;;27.53;15.73;;;;;;;-145.18;100.00;46713.13;4950958;29;20536;-61
2022/03/01 01:59:25;;;;;;;28.57;15.03;;;;;;;-145.18;100.00;46711.19;4951240;29;20360;-61
2022/03/01 02:01:50;;;;;;;31.00;16.10;;;;;;;-145.18;100.00;46758.06;4950541;29;20047;-61
2022/03/01 02:04:15;;;;;;;30.57;14.97;;;;;;;-145.18;100.00;46789.31;4951016;29;20113;-60
2022/03/01 02:06:51;;;;;;;31.00;15.63;;;;;;;-145.18;100.00;46816.66;4950802;29;20106;-60
2022/03/01 02:09:16;;;;;;;28.50;14.98;;;;;;;-145.18;100.00;46783.47;4951004;29;20504;-60
2022/03/01 02:11:42;;;;;;;27.83;15.23;;;;;;;-145.18;100.00;46828.38;4950531;29;20209;-61
2022/03/01 02:14:07;;;;;;;40.60;16.37;;;;;;;-145.18;100.00;46799.09;4950405;28;20035;-61
2022/03/01 02:16:34;;;;;;;31.00;15.37;;;;;;;-145.18;100.00;46820.56;4932000;29;20043;-60
2022/03/01 02:19:00;;;;;;;31.08;15.73;;;;;;;-145.18;100.00;46824.47;4950688;29;20039;-61
2022/03/01 02:21:25;;;;;;;28.13;15.00;;;;;;;-145.18;100.00;46847.91;4950848;29;20055;-61
2022/03/01 02:23:50;;;;;;;33.60;16.17;;;;;;;-145.18;100.00;46853.78;4934038;29;20039;-61
2022/03/01 02:26:16;;;;;;;33.80;16.80;;;;;;;-145.18;100.00;46820.56;4948972;29;20138;-60
2022/03/01 02:28:41;;;;;;;30.17;15.87;;;;;;;-145.18;100.00;46828.38;4950375;28;20563;-61
2022/03/01 02:31:06;;;;;;;24.70;14.50;;;;;;;-145.18;100.00;46840.09;4950347;29;20393;-60
2022/03/01 02:33:32;;;;;;;24.63;14.07;;;;;;;-145.18;100.00;46828.38;4949994;29;20047;-61
2022/03/01 02:35:57;;;;;;;29.23;14.53;;;;;;;-145.18;100.00;46840.09;4949931;29;20039;-61
2022/03/01 02:38:22;;;;;;;23.67;13.77;;;;;;;-145.18;100.00;46847.91;4950099;29;20044;-60
2022/03/01 02:40:48;;;;;;;28.27;13.93;;;;;;;-145.18;100.00;46847.91;4950294;29;20141;-61
2022/03/01 02:43:13;;;;;;;26.63;14.07;;;;;;;-145.18;100.00;46861.59;4949946;28;20047;-61
2022/03/01 02:45:39;;;;;;;28.93;14.77;;;;;;;-145.18;100.00;46838.16;4950264;29;20047;-60
2022/03/01 02:48:04;;;;;;;30.80;15.23;;;;;;;-145.18;100.00;46859.63;4949674;28;20032;-61
2022/03/01 02:50:30;;;;;;;32.17;15.10;;;;;;;-145.18;100.00;46847.91;4950334;29;20603;-60
2022/03/01 02:52:55;;;;;;;31.50;14.53;;;;;;;-145.18;100.00;46847.91;4949789;28;20093;-61
2022/03/01 02:55:21;;;;;;;25.57;13.67;;;;;;;-145.18;100.00;46861.59;4949790;29;20527;-60
2022/03/01 02:57:46;;;;;;;32.80;14.90;;;;;;;-145.18;100.00;46861.59;4949452;29;20093;-61
2022/03/01 03:00:12;;;;;;;29.67;14.70;;;;;;;-145.18;100.00;46861.59;4948019;28;20031;-61
2022/03/01 03:02:38;;;;;;;26.75;13.63;;;;;;;-145.18;100.00;46838.16;5095394;23;20074;-62
2022/03/01 03:05:04;;;;;;;24.40;14.40;;;;;;;-145.18;100.00;46830.34;4950145;28;20495;-62
2022/03/01 03:07:30;;;;;;;26.95;13.88;;;;;;;-145.18;100.00;46853.78;4950252;28;20126;-62
2022/03/01 03:09:55;;;;;;;26.70;13.73;;;;;;;-145.18;100.00;46859.63;4950491;28;20122;-62
2022/03/01 03:12:21;;;;;;;27.27;14.63;;;;;;;-145.18;100.00;46836.19;4950004;28;20138;-62
2022/03/01 03:14:46;;;;;;;25.80;13.60;;;;;;;-145.18;100.00;46793.22;4951297;28;20066;-62
2022/03/01 03:17:12;;;;;;;27.17;13.60;;;;;;;-145.18;100.00;46799.09;4949483;28;20047;-60
2022/03/01 03:19:37;;;;;;;26.70;14.13;;;;;;;-145.18;100.00;46789.31;4950329;28;20046;-60
2022/03/01 03:22:03;;;;;;;29.33;14.40;;;;;;;-145.18;100.00;46785.41;4949408;28;20102;-60
2022/03/01 03:24:29;;;;;;;27.13;14.48;;;;;;;-145.18;100.00;46769.78;4950463;28;20047;-60
2022/03/01 03:26:54;;;;;;;25.03;14.03;;;;;;;-145.18;100.00;46742.44;4949680;28;20318;-61
2022/03/01 03:29:20;;;;;;;26.57;13.83;;;;;;;-145.18;100.00;46701.41;4950686;28;20050;-60
2022/03/01 03:31:45;;;;;;;28.47;13.87;;;;;;;-145.18;100.00;46719.00;4950031;28;20039;-60
2022/03/01 03:34:11;;;;;;;25.43;13.57;;;;;;;-145.18;100.00;46748.28;4949555;28;20036;-60
2022/03/01 03:36:38;;;;;;;26.63;13.50;;;;;;;-145.18;100.00;46742.44;4950132;28;20102;-60
2022/03/01 03:39:06;;;;;;;26.17;14.48;;;;;;;-145.18;100.00;46701.41;4949101;28;20292;-60
2022/03/01 03:41:32;;;;;;;33.42;14.52;;;;;;;-145.18;100.00;46687.75;4949584;28;20101;-60
2022/03/01 03:43:59;;;;;;;26.70;13.63;;;;;;;-145.18;100.00;46709.22;4949252;28;20400;-61
2022/03/01 03:46:25;;;;;;;29.10;13.80;;;;;;;-145.18;100.00;46777.59;4950597;28;20050;-60
2022/03/01 03:48:52;;;;;;;37.20;14.23;;;;;;;-145.18;100.00;46773.69;4949311;28;20035;-60
2022/03/01 03:51:17;;;;;;;30.33;13.73;;;;;;;-145.18;100.00;46808.84;4949849;28;20035;-60
2022/03/01 03:53:43;;;;;;;27.60;13.30;;;;;;;-145.18;100.00;46789.31;4948101;28;20050;-60
2022/03/01 03:56:08;;;;;;;28.73;13.70;;;;;;;-145.18;100.00;46791.28;4948507;28;20043;-60
2022/03/01 03:58:34;;;;;;;30.43;14.40;;;;;;;-145.18;100.00;46771.75;4932168;28;20049;-60
2022/03/01 04:00:59;;;;;;;31.53;14.70;;;;;;;-145.18;100.00;46767.84;4950239;28;20043;-60
2022/03/01 04:03:25;;;;;;;24.40;14.17;;;;;;;-145.18;100.00;46785.41;4948870;28;20449;-60
2022/03/01 04:05:50;;;;;;;27.13;13.90;;;;;;;-145.18;100.00;46836.19;4949283;28;20129;-60
2022/03/01 04:08:17;;;;;;;26.90;13.87;;;;;;;-145.18;100.00;46814.72;4949201;28;20039;-60
2022/03/01 04:10:43;;;;;;;25.25;13.68;;;;;;;-145.18;100.00;46845.97;4949585;28;20823;-59
2022/03/01 04:13:08;;;;;;;24.60;14.95;;;;;;;-145.18;100.00;46824.47;4931847;28;20054;-61
2022/03/01 04:15:34;;;;;;;23.70;13.97;;;;;;;-145.18;100.00;46826.44;4950076;28;20046;-60
2022/03/01 04:17:59;;;;;;;29.10;13.93;;;;;;;-145.18;100.00;46812.75;4948855;28;20042;-60
2022/03/01 04:20:25;;;;;;;26.87;13.80;;;;;;;-145.18;100.00;46803.00;4949623;28;20488;-60
2022/03/01 04:22:50;;;;;;;23.97;13.43;;;;;;;-145.18;100.00;46767.84;4948602;28;20167;-60
2022/03/01 04:25:16;;;;;;;23.67;13.07;;;;;;;-145.18;100.00;46803.00;4949374;28;20571;-60
2022/03/01 04:27:41;;;;;;;25.73;13.07;;;;;;;-145.18;100.00;46781.50;4948768;28;20039;-60
2022/03/01 04:30:08;;;;;;;25.43;13.53;;;;;;;-145.18;100.00;46824.47;4932304;29;20467;-60
2022/03/01 04:32:34;;;;;;;23.42;12.80;;;;;;;-145.18;100.00;46834.25;4948851;28;20043;-60
2022/03/01 04:35:02;;;;;;;27.52;13.70;;;;;;;-145.18;100.00;46844.00;4948908;28;20110;-60
2022/03/01 04:37:27;;;;;;;23.13;12.13;;;;;;;-145.18;100.00;46842.06;4948515;28;20040;-60
2022/03/01 04:39:53;;;;;;;22.17;13.10;;;;;;;-145.18;100.00;46812.75;4940496;28;20102;-60
2022/03/01 04:42:18;;;;;;;20.60;12.17;;;;;;;-145.18;100.00;46832.28;4933906;29;20071;-60
2022/03/01 04:44:44;;;;;;;24.90;13.47;;;;;;;-145.18;100.00;46820.56;4934095;29;20093;-60
2022/03/01 04:47:09;;;;;;;22.47;13.57;;;;;;;-145.18;100.00;46844.00;4934403;29;20046;-60
2022/03/01 04:49:35;;;;;;;28.67;13.00;;;;;;;-145.18;100.00;46822.53;4933613;29;20503;-60
2022/03/01 04:52:00;;;;;;;26.47;13.30;;;;;;;-145.18;100.00;46826.44;4934052;29;20039;-60
2022/03/01 04:54:26;;;;;;;23.43;12.67;;;;;;;-145.18;100.00;46832.28;4933801;29;20043;-60
2022/03/01 04:56:51;;;;;;;26.47;13.37;;;;;;;-145.18;100.00;46781.50;4933848;29;20039;-60
2022/03/01 04:59:17;;;;;;;23.87;12.80;;;;;;;-145.18;100.00;46814.72;4933360;29;20047;-61
2022/03/01 05:01:43;;;;;;;22.40;12.77;;;;;;;-145.18;100.00;46787.38;4934640;29;20067;-60
2022/03/01 05:04:08;;;;;;;23.63;13.70;;;;;;;-145.18;100.00;46756.09;4933162;29;20050;-60
2022/03/01 05:06:34;;;;;;;24.83;12.50;;;;;;;-145.18;100.00;46761.97;4933916;29;20071;-60
2022/03/01 05:08:59;;;;;;;23.90;13.83;;;;;;;-145.18;100.00;46785.41;4933350;29;20040;-60
2022/03/01 05:11:24;;;;;;;24.37;12.90;;;;;;;-145.18;100.00;46779.56;4933577;29;20051;-60
2022/03/01 05:13:50;;;;;;;23.50;13.63;;;;;;;-145.18;100.00;46781.50;4933188;29;20036;-59
2022/03/01 05:16:15;;;;;;;26.53;13.67;;;;;;;-145.18;100.00;46771.75;4933971;29;20071;-60
2022/03/01 05:18:41;;;;;;;22.87;13.00;;;;;;;-145.18;100.00;46787.38;4933158;29;20098;-60
2022/03/01 05:21:06;;;;;;;24.43;13.20;;;;;;;-145.18;100.00;46775.66;4933708;29;20046;-60
2022/03/01 05:23:31;;;;;;;24.30;12.50;;;;;;;-145.18;100.00;46758.06;4916212;29;20054;-60
2022/03/01 05:25:57;;;;;;;24.83;13.03;;;;;;;-145.18;100.00;46779.56;4933477;29;20127;-60
2022/03/01 05:28:22;;;;;;;23.47;12.23;;;;;;;-145.18;100.00;46767.84;4933279;29;20043;-60
2022/03/01 05:30:48;;;;;;;23.50;13.17;;;;;;;-145.18;100.00;46763.91;4934102;29;20040;-60
2022/03/01 05:33:13;;;;;;;24.93;12.67;;;;;;;-145.18;100.00;46740.47;4931511;29;20074;-60
2022/03/01 05:35:39;;;;;;;22.67;12.27;;;;;;;-145.18;100.00;46773.69;4933197;29;20067;-60
2022/03/01 05:38:07;;;;;;;24.87;13.60;;;;;;;-145.18;100.00;46777.59;4932610;29;20409;-60
2022/03/01 05:40:32;;;;;;;23.83;13.57;;;;;;;-145.18;100.00;46769.78;4933109;29;20516;-60
2022/03/01 05:42:59;;;;;;;21.00;11.80;;;;;;;-145.18;100.00;46826.44;4932518;29;20039;-60
2022/03/01 05:45:25;;;;;;;20.30;12.45;;;;;;;-145.18;100.00;46830.34;4933705;29;20048;-60
2022/03/01 05:47:51;;;;;;;21.17;11.73;;;;;;;-145.18;100.00;46832.28;4932810;29;20122;-60
2022/03/01 05:50:18;;;;;;;21.38;12.73;;;;;;;-145.18;100.00;46838.16;4932681;29;20525;-59
2022/03/01 05:52:44;;;;;;;20.55;12.20;;;;;;;-145.18;100.00;46836.19;4932361;29;20553;-60
2022/03/01 05:55:12;;;;;;;23.98;12.52;;;;;;;-145.18;100.00;46834.25;4933059;29;20047;-60
2022/03/01 05:57:38;;;;;;;24.38;12.45;;;;;;;-145.18;100.00;46818.63;4932470;29;20444;-60
2022/03/01 06:00:12;;;;;;;23.10;12.47;;;;;;;-145.18;100.00;46812.75;4932775;29;20047;-60
2022/03/01 06:02:39;;;;;;;23.67;12.60;;;;;;;-145.18;100.00;46783.47;4932139;29;20055;-60
2022/03/01 06:05:04;;;;;;;25.23;12.95;;;;;;;-145.18;100.00;46797.13;4931694;29;20039;-60
2022/03/01 06:07:30;;;;;;;26.40;12.93;;;;;;;-145.18;100.00;46791.28;4932423;29;20070;-60
2022/03/01 06:09:55;;;;;;;24.23;13.10;;;;;;;-145.18;100.00;46834.25;4932321;29;20048;-60
2022/03/01 06:12:21;;;;;;;19.93;12.20;;;;;;;-145.18;100.00;46840.09;4931828;29;20134;-60
2022/03/01 06:14:46;;;;;;;22.13;12.17;;;;;;;-145.18;100.00;46844.00;4932254;29;20040;-60
2022/03/01 06:17:11;;;;;;;21.93;11.93;;;;;;;-145.18;100.00;46849.88;4932414;29;20504;-60
2022/03/01 06:19:37;;;;;;;21.63;12.53;;;;;;;-145.18;100.00;46806.91;4932107;29;20459;-60
2022/03/01 06:22:04;;;;;;;23.50;12.17;;;;;;;-145.18;100.00;46855.72;4933006;29;20114;-60
2022/03/01 06:24:30;;;;;;;23.38;12.23;;;;;;;-145.18;100.00;46818.63;4932123;29;20528;-60
2022/03/01 06:26:55;;;;;;;25.10;12.57;;;;;;;-145.18;100.00;46793.22;4914954;29;20048;-60
2022/03/01 06:29:21;;;;;;;20.47;11.40;;;;;;;-145.18;100.00;46808.84;4932095;29;20142;-60
2022/03/01 06:31:46;;;;;;;20.73;11.77;;;;;;;-145.18;100.00;46783.47;4932329;29;20126;-60
2022/03/01 06:34:12;;;;;;;21.97;12.17;;;;;;;-145.18;100.00;46834.25;4931839;29;20119;-60
2022/03/01 06:36:37;;;;;;;21.17;11.47;;;;;;;-145.18;100.00;46818.63;4932872;29;20042;-60
2022/03/01 06:39:03;;;;;;;20.90;12.00;;;;;;;-145.18;100.00;46844.00;4931607;29;20047;-59
2022/03/01 06:41:28;;;;;;;21.87;11.97;;;;;;;-145.18;100.00;46871.38;4932251;29;20052;-60
2022/03/01 06:43:53;;;;;;;21.97;11.90;;;;;;;-145.18;100.00;46855.72;4914898;29;20543;-60
2022/03/01 06:46:20;;;;;;;22.70;12.20;;;;;;;-145.18;100.00;46861.59;4931717;29;20051;-60
2022/03/01 06:48:47;;;;;;;21.95;12.07;;;;;;;-145.18;100.00;46836.19;4931499;29;20051;-60
2022/03/01 06:51:12;;;;;;;24.63;12.27;;;;;;;-145.18;100.00;46832.28;4932480;29;20040;-60
2022/03/01 06:53:37;;;;;;;28.97;13.20;;;;;;;-145.18;100.00;46820.56;4931332;29;20133;-60
2022/03/01 06:56:04;;;;;;;24.47;12.83;;;;;;;-145.18;100.00;46808.84;4931866;29;20039;-60
2022/03/01 06:58:30;;;;;;;27.02;12.85;;;;;;;-145.18;100.00;46803.00;4931115;29;20134;-60
2022/03/01 07:00:56;;;;;;;23.13;12.10;;;;;;;-145.18;100.00;46812.75;4931424;29;20678;-60
2022/03/01 07:03:22;;;;;;;20.60;11.50;;;;;;;-145.18;100.00;46824.47;4931016;29;20588;-60
2022/03/01 07:05:48;;;;;;;21.13;12.55;;;;;;;-145.18;100.00;46814.72;4932021;29;20068;-60
2022/03/01 07:08:13;;;;;;;26.57;12.70;;;;;;;-145.18;100.00;46845.97;4931840;29;20048;-60
2022/03/01 07:10:41;;;;;;;23.07;13.13;;;;;;;-145.18;100.00;46849.88;4931645;29;20594;-60
2022/03/01 07:13:06;;;;;;;22.33;12.70;;;;;;;-145.18;100.00;46869.41;4930973;29;20040;-60
2022/03/01 07:15:33;;;;;;;22.03;12.20;;;;;;;-145.18;100.00;46830.34;4931563;29;20048;-60
2022/03/01 07:17:59;;;;;;;23.20;13.52;;;;;;;-145.18;100.00;46871.38;4929588;29;20058;-60
2022/03/01 07:20:24;;;;;;;20.90;11.70;;;;;;;-145.18;100.00;46912.38;4931459;29;20048;-61
2022/03/01 07:22:50;;;;;;;28.47;12.00;;;;;;;-145.18;100.00;46955.34;4931761;29;20066;-60
2022/03/01 07:25:15;;;;;;;32.43;13.43;;;;;;;-145.18;100.00;46931.91;4931301;29;20051;-60
2022/03/01 07:27:46;;;;;;;24.03;12.53;;;;;;;-145.18;100.00;47017.88;4931045;29;20126;-60
2022/03/01 07:30:11;;;;;;;20.75;12.70;;;;;;;-145.18;100.00;46955.34;4930966;29;20493;-60
2022/03/01 07:32:37;;;;;;;22.20;12.17;;;;;;;-145.18;100.00;46908.47;4931234;29;20047;-60
2022/03/01 07:35:02;;;;;;;27.37;13.47;;;;;;;-145.18;100.00;46906.53;4930799;29;20055;-60
2022/03/01 07:37:27;;;;;;;25.77;14.07;;;;;;;-145.18;100.00;46890.91;4931050;29;20127;-60
2022/03/01 07:39:55;;;;;;;20.60;11.53;;;;;;;-145.18;100.00;46904.56;4931428;29;20044;-60
2022/03/01 07:42:21;;;;;;;21.92;11.25;;;;;;;-145.18;100.00;46910.44;4930966;29;20063;-59
2022/03/01 07:44:46;;;;;;;24.80;12.30;;;;;;;-145.18;100.00;46961.22;4930514;29;20420;-60
2022/03/01 07:47:11;;;;;;;22.13;12.23;;;;;;;-145.18;100.00;46982.72;4930755;29;20039;-60
2022/03/01 07:49:37;;;;;;;25.13;13.37;;;;;;;-145.18;100.00;46935.81;4929898;29;20044;-60
2022/03/01 07:52:03;;;;;;;25.43;11.77;;;;;;;-145.18;100.00;46928.00;4929912;29;20047;-60
2022/03/01 07:54:28;;;;;;;26.67;12.73;;;;;;;-145.18;100.00;46980.75;4930813;29;20036;-60
2022/03/01 07:56:54;;;;;;;21.83;12.57;;;;;;;-145.18;100.00;46967.09;4913478;29;20039;-60
2022/03/01 07:59:19;;;;;;;24.30;13.10;;;;;;;-145.18;100.00;47025.69;4930039;29;20044;-60
2022/03/01 08:01:44;;;;;;;31.10;13.30;;;;;;;-145.18;100.00;46961.22;4930409;29;20408;-61
2022/03/01 08:04:10;;;;;;;26.57;12.77;;;;;;;-145.18;100.00;46941.69;4929682;29;20062;-60
2022/03/01 08:06:35;;;;;;;22.93;12.60;;;;;;;-145.18;100.00;47078.44;4929927;29;20051;-60
2022/03/01 08:09:00;;;;;;;23.47;12.33;;;;;;;-145.18;100.00;47117.50;4930728;29;20031;-60
2022/03/01 08:11:26;;;;;;;25.80;12.73;;;;;;;-145.18;100.00;47256.22;4930376;29;20072;-60
2022/03/01 08:13:51;;;;;;;25.60;12.70;;;;;;;-145.18;100.00;47035.44;4930218;29;20042;-60
2022/03/01 08:16:17;;;;;;;23.10;13.10;;;;;;;-145.18;100.00;47369.53;4930307;29;20455;-60
2022/03/01 08:18:43;;;;;;;22.80;14.17;;;;;;;-145.18;100.00;47049.13;4930146;29;20048;-60
2022/03/01 08:21:09;;;;;;;21.47;12.00;;;;;;;-145.18;100.00;47236.66;4930208;29;20052;-60
2022/03/01 08:23:36;;;;;;;25.60;13.23;;;;;;;-145.18;100.00;47473.06;4930857;29;20301;-60
2022/03/01 08:26:04;;;;;;;23.33;13.27;;;;;;;-145.18;100.00;47605.94;4930352;29;20051;-61
2022/03/01 08:28:29;;;;;;;23.07;13.20;;;;;;;-145.18;100.00;47615.69;4929786;29;20258;-60
2022/03/01 08:30:55;;;;;;;25.60;13.60;;;;;;;-145.18;100.00;47613.75;4930549;29;20616;-60
2022/03/01 08:33:21;;;;;;;21.83;13.00;;;;;;;-145.18;100.00;47617.66;4929656;29;20048;-60
2022/03/01 08:35:47;;;;;;;26.87;13.07;;;;;;;-145.18;100.00;47621.56;4930280;29;20455;-60
2022/03/01 08:38:13;;;;;;;26.53;14.27;;;;;;;-145.18;100.00;47586.38;4928663;29;20309;-61
2022/03/01 08:40:39;;;;;;;27.83;13.40;;;;;;;-145.18;100.00;47621.56;4930354;29;20767;-60
2022/03/01 08:43:06;;;;;;;23.93;13.17;;;;;;;-145.18;100.00;47607.88;4929865;29;20432;-60
2022/03/01 08:45:32;;;;;;;27.60;13.43;;;;;;;-145.18;100.00;47570.75;4930249;29;20127;-60
2022/03/01 08:47:58;;;;;;;28.13;14.27;;;;;;;-145.18;100.00;47607.88;4930062;29;20362;-59
2022/03/01 08:50:24;;;;;;;26.97;13.43;;;;;;;-145.18;100.00;47594.19;4929977;29;20557;-60
2022/03/01 08:52:50;;;;;;;23.37;13.07;;;;;;;-145.18;100.00;47600.06;4930318;29;20286;-60
2022/03/01 08:55:15;;;;;;;24.77;13.87;;;;;;;-145.18;100.00;47598.09;4929486;29;20047;-60
2022/03/01 08:57:41;;;;;;;23.63;13.83;;;;;;;-145.18;100.00;47598.09;4931000;29;20273;-60
2022/03/01 09:00:10;;;;;;;24.63;14.43;;;;;;;-145.18;100.00;47607.88;4929433;29;20484;-60
2022/03/01 09:02:35;;;;;;;26.30;13.87;;;;;;;-145.18;100.00;47600.06;4929981;29;20067;-60
2022/03/01 09:05:01;;;;;;;22.67;12.87;;;;;;;-145.18;100.00;47578.56;4929861;29;20289;-60
2022/03/01 09:07:26;;;;;;;25.27;14.33;;;;;;;-145.18;100.00;47588.34;4929967;29;20152;-60
2022/03/01 09:09:52;;;;;;;26.40;13.67;;;;;;;-145.18;100.00;47566.84;4929610;29;20286;-60
2022/03/01 09:12:18;;;;;;;25.80;13.53;;;;;;;-145.18;100.00;47562.94;4930531;29;20496;-60
2022/03/01 09:14:44;;;;;;;21.10;13.00;;;;;;;-145.18;100.00;47580.53;4929691;29;20481;-60
2022/03/01 09:17:09;;;;;;;25.17;13.97;;;;;;;-145.18;100.00;47582.47;4929845;29;20353;-61
2022/03/01 09:19:35;;;;;;;24.17;12.73;;;;;;;-145.18;100.00;47594.19;4929755;29;20056;-59
2022/03/01 09:22:00;;;;;;;24.23;14.27;;;;;;;-145.18;100.00;47551.22;4930155;29;20051;-60
2022/03/01 09:24:26;;;;;;;24.97;13.60;;;;;;;-145.18;100.00;47545.34;4930142;29;20043;-60
2022/03/01 09:26:51;;;;;;;25.20;14.07;;;;;;;-145.18;100.00;47519.97;4917198;29;20059;-60
2022/03/01 09:29:17;;;;;;;21.27;13.43;;;;;;;-145.18;100.00;47529.72;4933145;29;20051;-60
2022/03/01 09:31:42;;;;;;;22.50;13.40;;;;;;;-145.18;100.00;47484.78;4933463;29;20048;-60
2022/03/01 09:34:07;;;;;;;22.20;12.77;;;;;;;-145.18;100.00;47508.22;4932844;29;20044;-60
2022/03/01 09:36:33;;;;;;;21.83;13.13;;;;;;;-145.18;100.00;47494.56;4933340;29;20049;-60
2022/03/01 09:38:58;;;;;;;25.10;13.17;;;;;;;-145.18;100.00;47504.31;4932865;29;20063;-60
2022/03/01 09:41:24;;;;;;;26.90;13.83;;;;;;;-145.18;100.00;47518.00;4933661;29;20440;-60
2022/03/01 09:43:54;;;;;;;30.77;14.50;;;;;;;-145.18;100.00;47514.09;4932719;29;20389;-60
2022/03/01 09:46:19;;;;;;;28.50;14.27;;;;;;;-145.18;100.00;47496.50;4933212;29;20071;-60
2022/03/01 09:48:45;;;;;;;31.43;14.23;;;;;;;-145.18;100.00;47484.78;4932365;29;20278;-60
2022/03/01 09:51:11;;;;;;;23.87;12.97;;;;;;;-145.18;100.00;47502.38;4933173;29;20039;-60
2022/03/01 09:53:41;;;;;;;25.70;14.27;;;;;;;-145.18;100.00;47490.66;4915505;29;20047;-60
2022/03/01 09:56:08;;;;;;;23.97;13.43;;;;;;;-145.18;100.00;47496.50;4932593;29;20044;-60
2022/03/01 09:58:33;;;;;;;27.70;13.27;;;;;;;-145.18;100.00;47488.69;4932549;29;20269;-60
2022/03/01 10:00:59;;;;;;;24.87;13.47;;;;;;;-145.18;100.00;47527.78;4932528;29;20282;-60
2022/03/01 10:03:28;;;;;;;24.63;14.20;;;;;;;-145.18;100.00;47500.41;4931536;29;20488;-60
2022/03/01 10:05:53;;;;;;;21.70;13.77;;;;;;;-145.18;100.00;47498.47;4932963;29;20051;-60
2022/03/01 10:08:24;;;;;;;23.20;13.43;;;;;;;-145.18;100.00;47480.88;4932419;29;20279;-60
2022/03/01 10:10:53;;;;;;;24.27;13.33;;;;;;;-145.18;100.00;47478.94;4932836;29;20036;-60
2022/03/01 10:13:29;;;;;;;27.50;13.80;;;;;;;-145.18;100.00;47482.84;4932104;29;20281;-60
2022/03/01 10:16:12;;;;;;;22.47;13.40;;;;;;;-145.18;100.00;47486.75;4932189;29;20775;-60
2022/03/01 10:18:50;;;;;;;21.17;13.23;;;;;;;-145.18;100.00;47486.75;4932143;29;20274;-60
2022/03/01 10:21:17;;;;;;;24.43;13.57;;;;;;;-145.18;100.00;47484.78;4932713;29;20357;-60
2022/03/01 10:23:49;;;;;;;28.77;14.40;;;;;;;-145.18;100.00;47451.56;4932221;29;20282;-60
2022/03/01 10:26:23;;;;;;;32.83;14.53;;;;;;;-145.18;100.00;47476.97;4931584;29;20278;-60
2022/03/01 10:28:50;;;;;;;28.33;13.17;;;;;;;-145.18;100.00;47488.69;4932340;29;20317;-60
2022/03/01 10:31:17;;;;;;;25.10;13.53;;;;;;;-145.18;100.00;47465.25;4932025;29;20301;-60
2022/03/01 10:34:00;;;;;;;24.23;13.40;;;;;;;-145.18;100.00;47473.06;4931965;29;20274;-61
2022/03/01 10:36:28;;;;;;;23.70;14.07;;;;;;;-145.18;100.00;47480.88;4931101;29;20830;-60
2022/03/01 10:39:00;;;;;;;29.13;13.93;;;;;;;-145.18;100.00;47461.34;4931667;29;20842;-60
2022/03/01 10:41:27;;;;;;;25.00;13.23;;;;;;;-145.18;100.00;47484.78;4931910;29;20755;-60
2022/03/01 10:43:56;;;;;;;27.10;14.13;;;;;;;-145.18;100.00;47494.56;4931594;29;22836;-60
2022/03/01 10:46:21;;;;;;;25.77;14.53;;;;;;;-145.18;100.00;47480.88;4931860;29;20345;-61
2022/03/01 10:48:46;;;;;;;22.87;13.73;;;;;;;-145.18;100.00;47484.78;4931620;29;20276;-60